createdAt,value
2017-10-02T00:01:31.654Z,97542.48
2017-10-02T00:03:59.651Z,97542.11
2017-10-02T00:06:28.079Z,97541.56
2017-10-02T00:08:55.657Z,97536.00
2017-10-02T00:11:23.664Z,97535.60
2017-10-02T00:13:51.241Z,97538.11
2017-10-02T00:16:18.828Z,97535.60
2017-10-02T00:18:47.074Z,97529.27
2017-10-02T00:21:15.036Z,97533.53
2017-10-02T00:23:42.629Z,97523.19
2017-10-02T00:26:10.201Z,97530.48
2017-10-02T00:28:38.311Z,97535.70
2017-10-02T00:31:08.410Z,97538.48
2017-10-02T00:33:37.036Z,97538.39
2017-10-02T00:36:04.612Z,97531.97
2017-10-02T00:38:32.176Z,97526.44
2017-10-02T00:40:59.785Z,97527.30
2017-10-02T00:43:28.752Z,97533.79
2017-10-02T00:45:59.312Z,97536.75
2017-10-02T00:48:27.870Z,97527.00
2017-10-02T00:50:55.462Z,97525.36
2017-10-02T00:53:23.439Z,97527.59
2017-10-02T00:55:51.241Z,97526.05
2017-10-02T00:58:19.156Z,97534.53
2017-10-02T01:00:46.913Z,97529.94
2017-10-02T01:03:14.896Z,97522.34
2017-10-02T01:05:43.970Z,97518.94
2017-10-02T01:08:11.549Z,97522.13
2017-10-02T01:10:39.754Z,97522.55
2017-10-02T01:13:07.305Z,97524.47
2017-10-02T01:15:35.257Z,97528.23
2017-10-02T01:18:02.833Z,97519.27
2017-10-02T01:20:30.391Z,97518.12
2017-10-02T01:22:58.031Z,97520.25
2017-10-02T01:25:25.622Z,97519.08
2017-10-02T01:27:53.254Z,97523.44
2017-10-02T01:30:23.873Z,97522.48
2017-10-02T01:32:51.771Z,97521.35
2017-10-02T01:35:19.712Z,97520.39
2017-10-02T01:37:47.252Z,97512.56
2017-10-02T01:40:15.170Z,97511.60
2017-10-02T01:42:42.731Z,97508.97
2017-10-02T01:45:10.746Z,97506.88
2017-10-02T01:47:38.285Z,97504.71
2017-10-02T01:50:07.011Z,97500.02
2017-10-02T01:52:36.590Z,97504.94
2017-10-02T01:55:04.823Z,97505.44
2017-10-02T01:57:33.764Z,97504.51
2017-10-02T02:00:01.300Z,97507.20
2017-10-02T02:02:29.258Z,97502.75
2017-10-02T02:04:57.150Z,97511.60
2017-10-02T02:10:00.056Z,97502.88
2017-10-02T02:12:28.163Z,97496.55
2017-10-02T02:14:56.460Z,97494.09
2017-10-02T02:17:25.157Z,97498.62
2017-10-02T02:19:52.739Z,97502.18
2017-10-02T02:22:22.061Z,97496.98
2017-10-02T02:24:50.317Z,97498.41
2017-10-02T02:27:19.425Z,97493.09
2017-10-02T02:29:46.992Z,97497.92
2017-10-02T02:32:14.957Z,97490.36
2017-10-02T02:34:47.432Z,97486.50
2017-10-02T02:37:15.349Z,97486.27
2017-10-02T02:39:43.464Z,97479.31
2017-10-02T02:42:12.584Z,97480.41
2017-10-02T02:44:40.618Z,97479.69
2017-10-02T02:47:08.181Z,97483.13
2017-10-02T02:49:35.746Z,97477.73
2017-10-02T02:52:03.734Z,97478.67
2017-10-02T02:54:31.291Z,97486.86
2017-10-02T02:56:59.553Z,97484.83
2017-10-02T02:59:27.121Z,97478.77
2017-10-02T03:01:57.111Z,97478.30
2017-10-02T03:04:24.680Z,97474.31
2017-10-02T03:06:52.234Z,97472.47
2017-10-02T03:09:19.817Z,97463.08
2017-10-02T03:11:47.443Z,97463.12
2017-10-02T03:14:15.025Z,97466.25
2017-10-02T03:16:42.572Z,97463.86
2017-10-02T03:19:10.433Z,97463.53
2017-10-02T03:21:38.376Z,97466.93
2017-10-02T03:24:06.820Z,97462.96
2017-10-02T03:26:37.354Z,97465.28
2017-10-02T03:29:07.613Z,97466.48
2017-10-02T03:31:36.738Z,97460.23
2017-10-02T03:34:04.325Z,97464.57
2017-10-02T03:36:32.663Z,97463.48
2017-10-02T03:39:02.020Z,97463.26
2017-10-02T03:41:29.608Z,97454.23
2017-10-02T03:43:57.608Z,97454.67
2017-10-02T03:46:25.163Z,97454.23
2017-10-02T03:48:53.038Z,97453.55
2017-10-02T03:51:20.579Z,97452.72
2017-10-02T03:53:48.535Z,97453.25
2017-10-02T03:56:16.112Z,97450.02
2017-10-02T03:58:46.092Z,97449.20
2017-10-02T04:01:14.412Z,97447.89
2017-10-02T04:03:43.856Z,97452.92
2017-10-02T04:06:11.614Z,97443.97
2017-10-02T04:08:39.402Z,97443.17
2017-10-02T04:11:07.730Z,97450.72
2017-10-02T04:13:37.047Z,97452.58
2017-10-02T04:16:04.657Z,97451.74
2017-10-02T04:18:32.224Z,97448.31
2017-10-02T04:21:00.003Z,97454.23
2017-10-02T04:23:27.594Z,97454.67
2017-10-02T04:25:55.195Z,97453.41
2017-10-02T04:28:24.478Z,97454.20
2017-10-02T04:30:52.080Z,97458.28
2017-10-02T04:33:20.079Z,97469.05
2017-10-02T04:35:49.267Z,97463.16
2017-10-02T04:38:19.941Z,97465.66
2017-10-02T04:40:50.878Z,97465.08
2017-10-02T04:43:18.786Z,97483.45
2017-10-02T04:45:47.088Z,97467.43
2017-10-02T04:48:14.780Z,97472.77
2017-10-02T04:50:43.917Z,97475.15
2017-10-02T04:53:11.902Z,97480.45
2017-10-02T04:55:42.591Z,97489.37
2017-10-02T04:58:10.597Z,97480.59
2017-10-02T05:00:39.902Z,97486.13
2017-10-02T05:03:08.844Z,97487.86
2017-10-02T05:05:36.434Z,97482.73
2017-10-02T05:08:04.628Z,97484.42
2017-10-02T05:10:32.192Z,97485.84
2017-10-02T05:13:01.387Z,97479.63
2017-10-02T05:15:28.961Z,97482.30
2017-10-02T05:17:56.530Z,97480.72
2017-10-02T05:20:24.498Z,97484.44
2017-10-02T05:22:52.075Z,97486.13
2017-10-02T05:25:19.677Z,97482.02
2017-10-02T05:27:47.195Z,97484.65
2017-10-02T05:30:14.754Z,97483.42
2017-10-02T05:32:42.760Z,97484.25
2017-10-02T05:35:10.329Z,97485.98
2017-10-02T05:37:38.246Z,97489.09
2017-10-02T05:40:05.816Z,97498.84
2017-10-02T05:42:33.389Z,97490.45
2017-10-02T05:45:01.315Z,97486.23
2017-10-02T05:47:28.889Z,97493.45
2017-10-02T05:49:57.120Z,97496.16
2017-10-02T05:52:24.716Z,97496.80
2017-10-02T05:54:52.297Z,97490.12
2017-10-02T05:57:19.873Z,97490.55
2017-10-02T05:59:48.897Z,97482.10
2017-10-02T06:02:16.454Z,97493.55
2017-10-02T06:04:44.033Z,97485.70
2017-10-02T06:07:11.614Z,97486.63
2017-10-02T06:09:40.318Z,97487.97
2017-10-02T06:12:07.878Z,97486.34
2017-10-02T06:14:35.480Z,97488.63
2017-10-02T06:17:03.100Z,97483.24
2017-10-02T06:19:30.688Z,97482.34
2017-10-02T06:21:58.280Z,97478.18
2017-10-02T06:24:28.334Z,97476.58
2017-10-02T06:26:55.937Z,97471.25
2017-10-02T06:29:23.509Z,97471.94
2017-10-02T06:31:51.142Z,97463.36
2017-10-02T06:34:18.709Z,97460.62
2017-10-02T06:36:46.280Z,97458.30
2017-10-02T06:39:13.933Z,97454.19
2017-10-02T06:41:41.893Z,97457.30
2017-10-02T06:44:09.461Z,97452.41
2017-10-02T06:46:37.052Z,97455.17
2017-10-02T06:49:04.606Z,97452.40
2017-10-02T06:51:32.499Z,97453.80
2017-10-02T06:54:00.159Z,97464.59
2017-10-02T06:56:27.742Z,97463.86
2017-10-02T06:58:55.382Z,97466.08
2017-10-02T07:01:23.035Z,97468.34
2017-10-02T07:03:51.013Z,97465.91
2017-10-02T07:06:18.606Z,97466.48
2017-10-02T07:08:46.661Z,97466.48
2017-10-02T07:11:14.244Z,97472.03
2017-10-02T07:13:41.812Z,97477.56
2017-10-02T07:16:09.405Z,97473.83
2017-10-02T07:18:36.973Z,97471.06
2017-10-02T07:21:04.565Z,97476.29
2017-10-02T07:23:32.198Z,97478.47
2017-10-02T07:26:01.889Z,97481.62
2017-10-02T07:28:30.116Z,97471.66
2017-10-02T07:30:57.788Z,97480.73
2017-10-02T07:33:26.493Z,97475.80
2017-10-02T07:35:54.404Z,97482.98
2017-10-02T07:38:22.653Z,97474.89
2017-10-02T07:40:50.279Z,97463.13
2017-10-02T07:43:18.365Z,97464.02
2017-10-02T07:45:45.952Z,97466.66
2017-10-02T07:48:13.935Z,97464.70
2017-10-02T07:50:42.889Z,97461.88
2017-10-02T07:53:10.464Z,97460.76
2017-10-02T07:55:38.464Z,97461.22
2017-10-02T07:58:07.531Z,97468.95
2017-10-02T08:00:35.121Z,97464.80
2017-10-02T08:03:03.008Z,97462.37
2017-10-02T08:05:30.596Z,97454.90
2017-10-02T08:07:58.180Z,97458.47
2017-10-02T08:10:26.253Z,97460.23
2017-10-02T08:12:53.837Z,97459.01
2017-10-02T08:15:21.450Z,97464.11
2017-10-02T08:17:49.084Z,97466.33
2017-10-02T08:20:16.673Z,97469.44
2017-10-02T08:22:44.265Z,97460.69
2017-10-02T08:25:11.851Z,97456.55
2017-10-02T08:27:39.815Z,97458.78
2017-10-02T08:30:07.537Z,97466.80
2017-10-02T08:32:35.196Z,97465.65
2017-10-02T08:35:02.760Z,97463.22
2017-10-02T08:37:30.349Z,97464.56
2017-10-02T08:39:57.935Z,97460.87
2017-10-02T08:42:25.517Z,97459.30
2017-10-02T08:44:53.215Z,97454.67
2017-10-02T08:47:20.792Z,97455.19
2017-10-02T08:49:48.396Z,97454.38
2017-10-02T08:52:15.959Z,97456.99
2017-10-02T08:54:43.540Z,97457.75
2017-10-02T08:57:11.710Z,97457.69
2017-10-02T08:59:40.370Z,97453.45
2017-10-02T09:02:07.964Z,97458.67
2017-10-02T09:04:35.542Z,97457.84
2017-10-02T09:07:03.120Z,97454.89
2017-10-02T09:09:30.742Z,97458.00
2017-10-02T09:11:58.296Z,97455.55
2017-10-02T09:14:25.861Z,97455.23
2017-10-02T09:16:54.868Z,97454.95
2017-10-02T09:19:23.009Z,97440.11
2017-10-02T09:21:51.102Z,97446.90
2017-10-02T09:24:18.667Z,97439.30
2017-10-02T09:26:48.687Z,97446.16
2017-10-02T09:29:16.290Z,97438.53
2017-10-02T09:31:44.910Z,97435.58
2017-10-02T09:34:12.463Z,97435.69
2017-10-02T09:36:40.375Z,97425.09
2017-10-02T09:39:08.299Z,97424.27
2017-10-02T09:41:36.325Z,97428.52
2017-10-02T09:44:03.887Z,97412.38
2017-10-02T09:46:31.625Z,97407.28
2017-10-02T09:49:00.610Z,97403.88
2017-10-02T09:51:29.506Z,97401.30
2017-10-02T09:53:59.102Z,97396.63
2017-10-02T09:56:26.654Z,97388.53
2017-10-02T09:58:54.606Z,97391.91
2017-10-02T10:01:22.343Z,97382.98
2017-10-02T10:03:51.292Z,97377.00
2017-10-02T10:06:18.887Z,97378.27
2017-10-02T10:08:46.485Z,97378.64
2017-10-02T10:11:14.077Z,97365.83
2017-10-02T10:13:41.613Z,97369.62
2017-10-02T10:16:09.194Z,97360.19
2017-10-02T10:18:36.768Z,97358.84
2017-10-02T10:21:04.385Z,97359.22
2017-10-02T10:23:31.970Z,97354.45
2017-10-02T10:25:59.520Z,97350.16
2017-10-02T10:28:27.474Z,97344.05
2017-10-02T10:30:55.067Z,97339.25
2017-10-02T10:33:22.618Z,97336.66
2017-10-02T10:35:50.713Z,97331.35
2017-10-02T10:38:18.306Z,97332.54
2017-10-02T10:40:45.862Z,97335.45
2017-10-02T10:43:13.467Z,97327.77
2017-10-02T10:45:42.272Z,97322.56
2017-10-02T10:48:09.874Z,97321.27
2017-10-02T10:50:37.433Z,97316.51
2017-10-02T10:53:05.019Z,97302.91
2017-10-02T10:55:32.621Z,97305.33
2017-10-02T10:58:00.178Z,97299.36
2017-10-02T11:00:28.171Z,97306.55
2017-10-02T11:02:55.706Z,97300.48
2017-10-02T11:05:23.301Z,97292.72
2017-10-02T11:07:51.331Z,97285.93
2017-10-02T11:10:18.937Z,97284.62
2017-10-02T11:12:46.489Z,97276.52
2017-10-02T11:15:14.073Z,97273.95
2017-10-02T11:17:42.180Z,97267.52
2017-10-02T11:20:11.151Z,97267.11
2017-10-02T11:22:39.904Z,97268.44
2017-10-02T11:25:07.497Z,97268.81
2017-10-02T11:27:35.069Z,97260.13
2017-10-02T11:30:02.623Z,97261.20
2017-10-02T11:32:30.510Z,97260.47
2017-10-02T11:34:58.080Z,97255.53
2017-10-02T11:37:27.101Z,97264.52
2017-10-02T11:39:54.682Z,97261.95
2017-10-02T11:42:23.667Z,97257.13
2017-10-02T11:44:51.405Z,97250.57
2017-10-02T11:47:20.129Z,97249.63
2017-10-02T11:49:47.790Z,97246.52
2017-10-02T11:52:16.910Z,97243.09
2017-10-02T11:54:44.500Z,97252.45
2017-10-02T11:57:12.476Z,97239.48
2017-10-02T11:59:40.032Z,97230.40
2017-10-02T12:02:09.001Z,97230.73
2017-10-02T12:04:36.927Z,97226.25
2017-10-02T12:07:04.526Z,97224.44
2017-10-02T12:09:32.090Z,97221.28
2017-10-02T12:11:59.675Z,97208.68
2017-10-02T12:14:27.548Z,97211.18
2017-10-02T12:16:55.141Z,97200.89
2017-10-02T12:19:24.222Z,97198.78
2017-10-02T12:21:52.325Z,97204.13
2017-10-02T12:24:23.737Z,97199.39
2017-10-02T12:26:55.451Z,97199.78
2017-10-02T12:29:23.021Z,97197.17
2017-10-02T12:31:50.613Z,97191.53
2017-10-02T12:34:18.177Z,97191.17
2017-10-02T12:36:45.747Z,97192.32
2017-10-02T12:39:14.301Z,97185.78
2017-10-02T12:41:43.110Z,97186.42
2017-10-02T12:44:11.263Z,97181.40
2017-10-02T12:46:39.980Z,97172.91
2017-10-02T12:49:07.577Z,97172.70
2017-10-02T12:51:36.878Z,97174.22
2017-10-02T12:54:04.857Z,97171.09
2017-10-02T12:56:32.438Z,97178.08
2017-10-02T12:59:00.051Z,97168.80
2017-10-02T13:01:31.023Z,97169.23
2017-10-02T13:03:59.760Z,97165.22
2017-10-02T13:06:27.338Z,97164.66
2017-10-02T13:08:56.541Z,97157.78
2017-10-02T13:11:24.119Z,97158.19
2017-10-02T13:13:51.892Z,97145.34
2017-10-02T13:16:19.459Z,97146.77
2017-10-02T13:18:47.396Z,97147.74
2017-10-02T13:21:15.047Z,97144.94
2017-10-02T13:23:42.622Z,97140.22
2017-10-02T13:26:12.980Z,97141.52
2017-10-02T13:28:41.607Z,97140.27
2017-10-02T13:31:10.216Z,97134.69
2017-10-02T13:33:40.120Z,97133.88
2017-10-02T13:36:10.000Z,97133.17
2017-10-02T13:38:40.669Z,97133.33
2017-10-02T13:41:10.152Z,97127.77
2017-10-02T13:43:40.422Z,97127.92
2017-10-02T13:46:11.859Z,97124.45
2017-10-02T13:48:39.949Z,97121.91
2017-10-02T13:51:07.562Z,97120.16
2017-10-02T13:53:41.437Z,97121.48
2017-10-02T13:56:09.449Z,97127.95
2017-10-02T13:58:37.929Z,97126.79
2017-10-02T14:01:07.447Z,97130.73
2017-10-02T14:03:45.903Z,97132.87
2017-10-02T14:06:15.211Z,97130.88
2017-10-02T14:08:47.241Z,97136.09
2017-10-02T14:11:16.167Z,97127.39
2017-10-02T14:13:44.787Z,97135.67
2017-10-02T14:16:13.160Z,97117.89
2017-10-02T14:18:40.777Z,97124.99
2017-10-02T14:21:08.339Z,97135.55
2017-10-02T14:23:36.619Z,97126.81
2017-10-02T14:26:05.565Z,97130.86
2017-10-02T14:28:33.591Z,97131.89
2017-10-02T14:31:04.254Z,97134.22
2017-10-02T14:33:32.121Z,97121.98
2017-10-02T14:36:02.547Z,97122.16
2017-10-02T14:38:32.045Z,97123.12
2017-10-02T14:40:59.624Z,97120.23
2017-10-02T14:43:27.609Z,97125.11
2017-10-02T14:45:55.829Z,97125.23
2017-10-02T14:48:23.405Z,97121.89
2017-10-02T14:50:50.964Z,97119.41
2017-10-02T14:53:18.563Z,97119.45
2017-10-02T14:55:49.097Z,97125.86
2017-10-02T14:58:18.221Z,97122.99
2017-10-02T15:00:45.814Z,97120.95
2017-10-02T15:03:14.083Z,97122.30
2017-10-02T15:05:43.210Z,97123.64
2017-10-02T15:08:11.454Z,97121.14
2017-10-02T15:10:39.038Z,97125.88
2017-10-02T15:13:07.378Z,97124.20
2017-10-02T15:15:35.430Z,97127.67
2017-10-02T15:18:02.987Z,97131.98
2017-10-02T15:20:32.003Z,97129.47
2017-10-02T15:23:04.821Z,97121.42
2017-10-02T15:25:32.758Z,97121.85
2017-10-02T15:28:01.834Z,97121.46
2017-10-02T15:30:31.876Z,97110.38
2017-10-02T15:33:01.205Z,97111.27
2017-10-02T15:35:30.661Z,97113.41
2017-10-02T15:37:59.186Z,97111.75
2017-10-02T15:40:28.974Z,97114.38
2017-10-02T15:42:56.954Z,97111.83
2017-10-02T15:45:24.867Z,97105.95
2017-10-02T15:47:52.915Z,97110.67
2017-10-02T15:50:22.791Z,97111.16
2017-10-02T15:52:50.798Z,97112.39
2017-10-02T15:55:20.103Z,97108.62
2017-10-02T15:57:47.674Z,97117.14
2017-10-02T16:00:15.372Z,97112.05
2017-10-02T16:02:42.974Z,97110.78
2017-10-02T16:05:10.564Z,97113.36
2017-10-02T16:07:39.856Z,97111.24
2017-10-02T16:10:08.872Z,97118.52
2017-10-02T16:12:40.234Z,97112.58
2017-10-02T16:15:07.910Z,97122.41
2017-10-02T16:17:36.746Z,97117.70
2017-10-02T16:20:04.332Z,97117.31
2017-10-02T16:22:32.351Z,97122.90
2017-10-02T16:25:01.056Z,97123.34
2017-10-02T16:27:29.403Z,97130.18
2017-10-02T16:29:58.964Z,97133.66
2017-10-02T16:32:26.657Z,97130.69
2017-10-02T16:34:54.239Z,97130.69
2017-10-02T16:37:23.272Z,97135.40
2017-10-02T16:39:51.029Z,97134.55
2017-10-02T16:42:21.104Z,97140.12
2017-10-02T16:44:48.682Z,97132.48
2017-10-02T16:47:16.306Z,97132.08
2017-10-02T16:49:43.871Z,97135.09
2017-10-02T16:52:13.063Z,97135.14
2017-10-02T16:54:41.369Z,97139.39
2017-10-02T16:57:13.059Z,97139.00
2017-10-02T16:59:41.019Z,97142.42
2017-10-02T17:02:09.681Z,97139.88
2017-10-02T17:04:37.312Z,97139.48
2017-10-02T17:07:06.131Z,97141.18
2017-10-02T17:09:34.485Z,97134.36
2017-10-02T17:12:02.123Z,97125.42
2017-10-02T17:14:29.694Z,97125.02
2017-10-02T17:16:57.320Z,97126.70
2017-10-02T17:19:25.685Z,97134.42
2017-10-02T17:21:53.983Z,97130.16
2017-10-02T17:24:21.556Z,97132.74
2017-10-02T17:26:51.838Z,97123.80
2017-10-02T17:29:19.951Z,97121.27
2017-10-02T17:31:47.549Z,97123.00
2017-10-02T17:34:15.151Z,97124.70
2017-10-02T17:36:43.085Z,97128.58
2017-10-02T17:39:12.018Z,97126.00
2017-10-02T17:41:39.669Z,97129.45
2017-10-02T17:44:07.672Z,97133.30
2017-10-02T17:46:36.437Z,97130.75
2017-10-02T17:49:05.392Z,97129.05
2017-10-02T17:51:33.793Z,97132.44
2017-10-02T17:54:01.356Z,97129.89
2017-10-02T17:56:29.333Z,97123.06
2017-10-02T17:59:00.192Z,97122.67
2017-10-02T18:01:27.796Z,97119.70
2017-10-02T18:03:55.428Z,97118.02
2017-10-02T18:06:23.374Z,97123.55
2017-10-02T18:08:50.994Z,97119.29
2017-10-02T18:11:18.980Z,97129.95
2017-10-02T18:13:46.564Z,97135.05
2017-10-02T18:16:14.177Z,97138.48
2017-10-02T18:18:41.792Z,97145.72
2017-10-02T18:21:09.358Z,97144.45
2017-10-02T18:23:38.601Z,97138.49
2017-10-02T18:26:06.520Z,97137.66
2017-10-02T18:28:37.390Z,97138.51
2017-10-02T18:31:05.097Z,97142.77
2017-10-02T18:33:33.238Z,97144.91
2017-10-02T18:36:00.845Z,97144.07
2017-10-02T18:38:28.888Z,97141.95
2017-10-02T18:40:56.467Z,97145.34
2017-10-02T18:43:24.065Z,97155.16
2017-10-02T18:45:51.738Z,97150.45
2017-10-02T18:48:19.906Z,97158.14
2017-10-02T18:50:47.487Z,97156.02
2017-10-02T18:53:15.484Z,97159.00
2017-10-02T18:55:43.077Z,97165.83
2017-10-02T18:58:10.707Z,97167.98
2017-10-02T19:00:38.316Z,97169.69
2017-10-02T19:03:05.965Z,97162.03
2017-10-02T19:05:33.541Z,97167.56
2017-10-02T19:08:01.164Z,97161.61
2017-10-02T19:10:30.905Z,97155.67
2017-10-02T19:12:58.501Z,97151.42
2017-10-02T19:15:26.101Z,97151.88
2017-10-02T19:17:53.716Z,97149.30
2017-10-02T19:20:21.526Z,97153.16
2017-10-02T19:22:49.141Z,97150.19
2017-10-02T19:25:16.841Z,97145.06
2017-10-02T19:27:45.771Z,97153.59
2017-10-02T19:30:13.397Z,97152.71
2017-10-02T19:32:41.393Z,97146.33
2017-10-02T19:35:09.176Z,97153.58
2017-10-02T19:37:37.599Z,97150.61
2017-10-02T19:40:05.618Z,97148.05
2017-10-02T19:42:33.187Z,97148.05
2017-10-02T19:45:00.817Z,97143.80
2017-10-02T19:47:28.510Z,97144.64
2017-10-02T19:49:56.099Z,97138.69
2017-10-02T19:52:24.127Z,97132.73
2017-10-02T19:54:52.093Z,97131.88
2017-10-02T19:57:21.007Z,97137.84
2017-10-02T19:59:48.569Z,97134.86
2017-10-02T20:02:16.498Z,97135.72
2017-10-02T20:04:44.892Z,97135.71
2017-10-02T20:07:12.486Z,97126.36
2017-10-02T20:09:42.086Z,97130.59
2017-10-02T20:12:09.712Z,97127.63
2017-10-02T20:14:37.635Z,97125.08
2017-10-02T20:17:05.257Z,97123.79
2017-10-02T20:19:32.879Z,97110.63
2017-10-02T20:22:00.476Z,97108.47
2017-10-02T20:24:28.658Z,97105.91
2017-10-02T20:26:56.683Z,97105.50
2017-10-02T20:29:24.333Z,97100.81
2017-10-02T20:31:51.948Z,97101.23
2017-10-02T20:34:20.804Z,97099.55
2017-10-02T20:36:48.392Z,97095.72
2017-10-02T20:39:15.970Z,97094.84
2017-10-02T20:41:43.547Z,97094.42
2017-10-02T20:44:11.202Z,97091.42
2017-10-02T20:46:38.794Z,97086.75
2017-10-02T20:49:06.354Z,97079.94
2017-10-02T20:51:33.974Z,97082.50
2017-10-02T20:54:01.577Z,97085.05
2017-10-02T20:56:29.156Z,97083.36
2017-10-02T20:58:56.766Z,97070.59
2017-10-02T21:01:24.347Z,97081.63
2017-10-02T21:03:51.918Z,97076.97
2017-10-02T21:06:19.510Z,97079.08
2017-10-02T21:08:47.085Z,97076.96
2017-10-02T21:11:15.563Z,97076.94
2017-10-02T21:13:43.479Z,97073.97
2017-10-02T21:16:11.257Z,97073.54
2017-10-02T21:18:38.828Z,97071.83
2017-10-02T21:21:06.429Z,97070.97
2017-10-02T21:23:34.501Z,97063.73
2017-10-02T21:26:02.440Z,97064.59
2017-10-02T21:28:31.472Z,97061.19
2017-10-02T21:30:59.378Z,97056.50
2017-10-02T21:33:27.320Z,97049.70
2017-10-02T21:35:54.893Z,97055.23
2017-10-02T21:38:22.838Z,97044.57
2017-10-02T21:40:51.445Z,97037.36
2017-10-02T21:43:18.987Z,97040.31
2017-10-02T21:45:46.626Z,97027.98
2017-10-02T21:48:14.730Z,97032.23
2017-10-02T21:50:42.329Z,97026.67
2017-10-02T21:53:10.275Z,97025.00
2017-10-02T21:55:37.846Z,97022.84
2017-10-02T21:58:05.448Z,97024.98
2017-10-02T22:00:34.120Z,97020.31
2017-10-02T22:03:02.367Z,97025.42
2017-10-02T22:05:29.962Z,97019.86
2017-10-02T22:07:58.885Z,97019.45
2017-10-02T22:10:27.855Z,97016.44
2017-10-02T22:12:55.863Z,97011.33
2017-10-02T22:15:23.604Z,97012.19
2017-10-02T22:17:52.607Z,97009.62
2017-10-02T22:20:20.186Z,97017.73
2017-10-02T22:22:47.757Z,97009.64
2017-10-02T22:25:15.632Z,97008.38
2017-10-02T22:27:43.254Z,96999.83
2017-10-02T22:30:10.824Z,96992.59
2017-10-02T22:32:38.443Z,96990.91
2017-10-02T22:35:10.221Z,96989.60
2017-10-02T22:37:37.865Z,96993.02
2017-10-02T22:40:06.508Z,96986.20
2017-10-02T22:42:35.783Z,96990.02
2017-10-02T22:45:03.356Z,96988.33
2017-10-02T22:47:32.314Z,96990.43
2017-10-02T22:50:00.322Z,96988.73
2017-10-02T22:52:27.895Z,96979.38
2017-10-02T22:54:56.214Z,96982.75
2017-10-02T22:57:23.752Z,96982.36
2017-10-02T22:59:52.578Z,96993.39
2017-10-02T23:02:21.590Z,96996.37
2017-10-02T23:04:49.520Z,96991.70
2017-10-02T23:07:17.447Z,96989.14
2017-10-02T23:09:45.014Z,96995.09
2017-10-02T23:12:13.334Z,96994.66
2017-10-02T23:14:40.898Z,96994.22
2017-10-02T23:17:08.460Z,96995.94
2017-10-02T23:19:38.797Z,96986.57
2017-10-02T23:22:07.896Z,96991.26
2017-10-02T23:24:35.504Z,96989.97
2017-10-02T23:27:03.102Z,96986.13
2017-10-02T23:29:31.043Z,96983.13
2017-10-02T23:31:59.340Z,96985.27
2017-10-02T23:34:29.001Z,96985.67
2017-10-02T23:36:56.597Z,96981.83
2017-10-02T23:39:24.228Z,96975.45
2017-10-02T23:41:52.139Z,96969.46
2017-10-02T23:44:19.708Z,96974.58
2017-10-02T23:46:48.730Z,96977.16
2017-10-02T23:49:17.139Z,96977.14
2017-10-02T23:51:45.101Z,96976.28
2017-10-02T23:54:12.668Z,96975.85
2017-10-02T23:56:40.241Z,96979.69
2017-10-02T23:59:07.854Z,96973.73
